Time;durP1;ratioP1;P1;durP2;ratioP2;P2;SDS_P1;SDS_P2;PMS_P1;PMS_P2;Temp;Humidity;BMP_temperature;BMP_pressure;BME280_temperature;BME280_humidity;BME280_pressure;Samples;Min_cycle;Max_cycle;Signal;HPM_P1;HPM_P2
2023/04/08 00:01:52;;;;;;;0.75;0.75;;;8.30;80.40;;;;;;5029113;28;20036;-69
2023/04/08 00:04:18;;;;;;;0.93;0.93;;;8.30;80.60;;;;;;5044482;28;20435;-70
2023/04/08 00:06:43;;;;;;;2.40;0.95;;;8.30;80.60;;;;;;5033779;28;20392;-71
2023/04/08 00:09:09;;;;;;;1.20;0.98;;;8.30;80.70;;;;;;5043514;28;20029;-64
2023/04/08 00:11:36;;;;;;;1.15;0.85;;;8.30;80.60;;;;;;5047421;28;20048;-66
2023/04/08 00:14:03;;;;;;;2.00;1.23;;;8.30;80.60;;;;;;5047232;28;20029;-65
2023/04/08 00:16:29;;;;;;;0.95;0.70;;;8.30;80.60;;;;;;5050067;28;20128;-64
2023/04/08 00:18:55;;;;;;;0.90;0.90;;;8.20;80.50;;;;;;5045022;28;20104;-69
2023/04/08 00:21:22;;;;;;;1.23;1.00;;;8.20;80.40;;;;;;5043132;28;20049;-66
2023/04/08 00:23:48;;;;;;;1.02;0.90;;;8.20;80.30;;;;;;5043621;28;20018;-69
2023/04/08 00:26:13;;;;;;;1.55;1.10;;;8.20;80.30;;;;;;5037669;28;20072;-65
2023/04/08 00:28:40;;;;;;;1.48;1.02;;;8.10;80.10;;;;;;5037087;28;20030;-65
2023/04/08 00:31:05;;;;;;;1.63;0.98;;;8.10;80.10;;;;;;5042851;28;20027;-65
2023/04/08 00:33:31;;;;;;;1.63;0.98;;;8.00;80.10;;;;;;5048849;28;20108;-65
2023/04/08 00:35:57;;;;;;;1.33;0.98;;;8.00;80.20;;;;;;5043391;28;20022;-64
2023/04/08 00:38:22;;;;;;;1.60;1.00;;;8.00;80.20;;;;;;5026491;28;20086;-70
2023/04/08 00:40:48;;;;;;;1.45;1.08;;;8.00;80.20;;;;;;5022818;28;20025;-69
2023/04/08 00:43:15;;;;;;;1.45;1.27;;;8.00;80.20;;;;;;5046063;28;20029;-71
2023/04/08 00:45:41;;;;;;;2.50;1.52;;;7.90;80.20;;;;;;5045976;28;20079;-69
2023/04/08 00:48:06;;;;;;;1.15;0.95;;;7.90;80.20;;;;;;5043492;28;20025;-70
2023/04/08 00:50:32;;;;;;;2.08;1.27;;;7.90;80.20;;;;;;5045043;28;20481;-70
2023/04/08 00:52:58;;;;;;;1.35;0.88;;;7.80;80.20;;;;;;5014059;28;20076;-70
2023/04/08 00:55:24;;;;;;;1.92;1.55;;;7.80;80.30;;;;;;5025113;28;20076;-70
2023/04/08 00:57:50;;;;;;;1.55;1.45;;;7.80;80.20;;;;;;5044289;28;20384;-71
2023/04/08 01:00:15;;;;;;;1.77;0.98;;;7.70;80.10;;;;;;5040733;28;20034;-70
2023/04/08 01:03:24;;;;;;;1.92;1.15;;;7.70;80.30;;;;;;5038500;28;20117;-65
2023/04/08 01:06:01;;;;;;;1.33;1.23;;;7.70;80.20;;;;;;5045953;28;20392;-70
2023/04/08 01:08:30;;;;;;;2.72;1.65;;;7.60;80.40;;;;;;5041571;28;20452;-69
2023/04/08 01:11:00;;;;;;;1.88;1.35;;;7.60;80.50;;;;;;5043373;28;20431;-65
2023/04/08 01:13:30;;;;;;;2.38;1.60;;;7.60;80.60;;;;;;5045293;28;20028;-70
2023/04/08 01:15:56;;;;;;;2.67;1.73;;;7.60;80.50;;;;;;5040688;28;20265;-69
2023/04/08 01:18:22;;;;;;;1.95;1.30;;;7.60;80.50;;;;;;5045675;28;20013;-70
2023/04/08 01:20:50;;;;;;;2.50;1.48;;;7.60;80.50;;;;;;5040499;28;20033;-70
2023/04/08 01:23:46;;;;;;;1.70;1.27;;;7.60;80.50;;;;;;5020572;28;20045;-70
2023/04/08 01:26:24;;;;;;;0.98;0.98;;;7.70;80.60;;;;;;5025760;28;20048;-65
2023/04/08 01:28:56;;;;;;;2.15;1.48;;;7.60;80.60;;;;;;5021698;28;20035;-64
2023/04/08 01:31:24;;;;;;;2.17;1.15;;;7.60;80.60;;;;;;5038205;28;20021;-65
2023/04/08 01:33:51;;;;;;;2.85;1.13;;;7.60;80.70;;;;;;5027560;28;20071;-64
2023/04/08 01:36:17;;;;;;;1.00;0.73;;;7.60;80.60;;;;;;5044487;28;20017;-65
2023/04/08 01:38:46;;;;;;;1.33;1.10;;;7.60;80.60;;;;;;5002727;28;20034;-66
2023/04/08 01:41:12;;;;;;;1.70;1.00;;;7.60;80.60;;;;;;5044051;28;20100;-70
2023/04/08 01:43:40;;;;;;;1.30;1.00;;;7.50;80.60;;;;;;5044369;28;20103;-71
2023/04/08 01:46:07;;;;;;;0.90;0.90;;;7.50;80.50;;;;;;5029767;28;20028;-65
2023/04/08 01:48:34;;;;;;;0.90;0.90;;;7.50;80.50;;;;;;5040863;28;20034;-71
2023/04/08 01:51:01;;;;;;;0.50;0.50;;;7.40;80.50;;;;;;5027955;28;20459;-65
2023/04/08 01:53:26;;;;;;;1.08;0.80;;;7.40;80.60;;;;;;5037274;28;20029;-70
2023/04/08 01:55:57;;;;;;;0.90;0.90;;;7.40;80.60;;;;;;5037960;28;20038;-65
2023/04/08 01:58:25;;;;;;;1.15;0.80;;;7.40;80.60;;;;;;5043868;28;20025;-64
2023/04/08 02:00:53;;;;;;;0.73;0.63;;;7.40;80.50;;;;;;5042226;28;20022;-65
2023/04/08 02:03:21;;;;;;;1.42;0.93;;;7.30;80.50;;;;;;5039789;28;20537;-70
2023/04/08 02:05:47;;;;;;;0.82;0.80;;;7.30;80.40;;;;;;5027146;28;20037;-66
2023/04/08 02:08:12;;;;;;;0.98;0.77;;;7.30;80.30;;;;;;5008859;28;20048;-69
2023/04/08 02:10:38;;;;;;;1.40;0.80;;;7.20;80.20;;;;;;5028416;28;20412;-64
2023/04/08 02:13:04;;;;;;;1.38;0.75;;;7.20;80.30;;;;;;5040473;28;20037;-65
2023/04/08 02:15:35;;;;;;;1.08;0.80;;;7.10;80.30;;;;;;5044385;28;20468;-65
2023/04/08 02:18:14;;;;;;;1.13;0.93;;;7.20;80.20;;;;;;5037681;28;20291;-64
2023/04/08 02:20:45;;;;;;;0.80;0.77;;;7.10;80.20;;;;;;5040946;28;20030;-65
2023/04/08 02:23:20;;;;;;;0.70;0.70;;;7.00;80.10;;;;;;5038924;28;20033;-71
2023/04/08 02:25:47;;;;;;;1.30;0.75;;;7.00;80.10;;;;;;5044283;28;20423;-70
2023/04/08 02:28:16;;;;;;;0.85;0.57;;;7.00;80.20;;;;;;5034620;28;20036;-70
2023/04/08 02:30:47;;;;;;;1.48;1.30;;;6.90;80.10;;;;;;5038279;28;20036;-71
2023/04/08 02:33:15;;;;;;;1.20;0.70;;;6.90;80.10;;;;;;5042568;28;20021;-69
2023/04/08 02:35:42;;;;;;;1.60;0.90;;;6.90;80.10;;;;;;5019941;28;20120;-69
2023/04/08 02:38:09;;;;;;;1.08;0.70;;;6.80;80.10;;;;;;5022900;28;20029;-70
2023/04/08 02:40:35;;;;;;;1.30;1.20;;;6.80;80.10;;;;;;5045179;28;20037;-71
2023/04/08 02:43:01;;;;;;;1.40;1.30;;;6.80;80.10;;;;;;5045242;28;20029;-71
2023/04/08 02:45:30;;;;;;;1.35;1.15;;;6.80;80.10;;;;;;5027754;28;20068;-70
2023/04/08 02:47:57;;;;;;;0.80;0.70;;;6.80;80.10;;;;;;5037568;28;20061;-71
2023/04/08 02:50:23;;;;;;;1.40;1.08;;;6.70;80.00;;;;;;5044940;28;20033;-70
2023/04/08 02:52:48;;;;;;;1.83;1.02;;;6.70;80.00;;;;;;5020688;28;20095;-71
2023/04/08 02:55:14;;;;;;;1.15;1.00;;;6.70;80.00;;;;;;5037510;28;20040;-71
2023/04/08 02:57:41;;;;;;;1.23;1.13;;;6.60;80.00;;;;;;5041725;28;20104;-71
2023/04/08 03:00:08;;;;;;;1.70;1.30;;;6.60;80.00;;;;;;5046430;28;20059;-65
2023/04/08 03:02:34;;;;;;;1.90;1.27;;;6.60;80.00;;;;;;5045241;28;20029;-71
2023/04/08 03:05:00;;;;;;;2.50;1.40;;;6.60;80.00;;;;;;5039794;28;20029;-71
2023/04/08 03:07:26;;;;;;;1.75;1.45;;;6.50;80.00;;;;;;5047309;28;20041;-71
2023/04/08 03:09:53;;;;;;;2.45;1.38;;;6.50;80.00;;;;;;5044974;28;20437;-71
2023/04/08 03:12:20;;;;;;;1.42;1.10;;;6.50;80.00;;;;;;5042448;28;20090;-71
2023/04/08 03:14:45;;;;;;;1.58;1.45;;;6.50;80.00;;;;;;5044274;28;20583;-64
2023/04/08 03:17:11;;;;;;;1.40;0.95;;;6.40;79.90;;;;;;5047535;28;20059;-69
2023/04/08 03:19:37;;;;;;;2.33;1.35;;;6.40;79.80;;;;;;5041442;28;20068;-65
2023/04/08 03:22:02;;;;;;;0.75;0.75;;;6.40;79.90;;;;;;5044325;28;20563;-65
2023/04/08 03:24:28;;;;;;;1.98;1.30;;;6.30;80.00;;;;;;5042542;28;20025;-69
2023/04/08 03:26:54;;;;;;;1.75;1.40;;;6.30;79.90;;;;;;5013353;28;20670;-68
2023/04/08 03:29:19;;;;;;;1.30;1.15;;;6.20;79.80;;;;;;5042683;28;20034;-65
2023/04/08 03:31:45;;;;;;;1.20;0.88;;;6.20;80.40;;;;;;5024025;28;20385;-66
2023/04/08 03:34:11;;;;;;;1.80;1.42;;;6.20;79.70;;;;;;5022370;28;20072;-67
2023/04/08 03:36:36;;;;;;;1.50;1.00;;;6.10;79.60;;;;;;5044756;28;20017;-64
2023/04/08 03:39:02;;;;;;;1.60;1.00;;;6.10;79.60;;;;;;5021457;28;20123;-66
2023/04/08 03:41:28;;;;;;;2.42;0.95;;;6.10;79.60;;;;;;5042674;28;20443;-66
2023/04/08 03:43:54;;;;;;;2.45;1.75;;;6.10;79.60;;;;;;5044371;28;20500;-65
2023/04/08 03:46:21;;;;;;;2.63;1.63;;;6.10;79.60;;;;;;5027868;28;20037;-64
2023/04/08 03:48:47;;;;;;;1.75;1.60;;;6.10;79.70;;;;;;5046345;28;20472;-65
2023/04/08 03:51:12;;;;;;;2.15;1.85;;;6.10;79.70;;;;;;5047690;28;20029;-64
2023/04/08 03:53:38;;;;;;;3.58;2.45;;;6.10;79.70;;;;;;5042731;28;20040;-71
2023/04/08 03:56:04;;;;;;;1.95;1.45;;;6.00;79.60;;;;;;5036751;28;20025;-71
2023/04/08 03:58:30;;;;;;;2.63;1.60;;;6.00;79.60;;;;;;5010440;28;20033;-66
2023/04/08 04:01:00;;;;;;;2.22;1.63;;;6.00;79.50;;;;;;5026918;28;20112;-65
2023/04/08 04:03:26;;;;;;;2.28;1.85;;;6.00;79.50;;;;;;5040865;28;20037;-67
2023/04/08 04:05:52;;;;;;;2.15;1.95;;;5.90;79.70;;;;;;5044449;28;20488;-67
2023/04/08 04:08:18;;;;;;;4.57;2.22;;;5.90;79.70;;;;;;5041288;28;20040;-66
2023/04/08 04:10:43;;;;;;;4.07;2.05;;;5.90;79.80;;;;;;5045547;28;20037;-68
2023/04/08 04:13:09;;;;;;;2.95;2.22;;;5.90;80.00;;;;;;5046819;28;20068;-70
2023/04/08 04:15:39;;;;;;;2.92;2.03;;;5.90;79.90;;;;;;5046638;28;20033;-69
2023/04/08 04:18:05;;;;;;;3.25;2.67;;;5.90;79.90;;;;;;5028375;28;20155;-68
2023/04/08 04:20:31;;;;;;;4.85;2.53;;;5.90;80.00;;;;;;5046040;28;20041;-71
2023/04/08 04:22:57;;;;;;;3.42;2.67;;;5.90;79.90;;;;;;5049184;28;20060;-65
2023/04/08 04:25:23;;;;;;;6.38;2.88;;;5.90;80.00;;;;;;5037190;28;20033;-65
2023/04/08 04:27:48;;;;;;;4.20;3.05;;;5.90;80.00;;;;;;5042152;28;20037;-65
2023/04/08 04:30:14;;;;;;;3.80;2.83;;;5.90;79.90;;;;;;5045153;28;20029;-65
2023/04/08 04:32:41;;;;;;;4.03;3.15;;;5.90;80.00;;;;;;5030899;28;20032;-65
2023/04/08 04:35:09;;;;;;;3.75;3.10;;;5.90;80.00;;;;;;5044232;28;20041;-65
2023/04/08 04:37:35;;;;;;;5.15;3.50;;;5.90;80.10;;;;;;5037851;28;20542;-64
2023/04/08 04:40:01;;;;;;;4.65;3.20;;;5.80;80.10;;;;;;5044059;28;20029;-65
2023/04/08 04:42:27;;;;;;;5.90;3.42;;;5.80;80.10;;;;;;5028358;28;20025;-65
2023/04/08 04:44:53;;;;;;;6.13;3.60;;;5.80;80.10;;;;;;5040197;28;20084;-72
2023/04/08 04:47:19;;;;;;;3.83;3.00;;;5.70;80.00;;;;;;5025737;28;20025;-71
2023/04/08 04:49:45;;;;;;;3.58;2.50;;;5.70;80.00;;;;;;5037032;28;20168;-65
2023/04/08 04:52:10;;;;;;;4.43;2.65;;;5.70;80.00;;;;;;5039754;28;20027;-64
2023/04/08 04:54:36;;;;;;;3.65;2.92;;;5.70;79.90;;;;;;5032842;28;20030;-65
2023/04/08 04:57:02;;;;;;;5.90;3.42;;;5.70;79.90;;;;;;5022012;28;20029;-65
2023/04/08 04:59:27;;;;;;;4.90;3.10;;;5.70;79.90;;;;;;5024289;28;20040;-65
2023/04/08 05:01:56;;;;;;;5.57;3.08;;;5.70;79.90;;;;;;5040503;28;20560;-65
2023/04/08 05:04:22;;;;;;;4.93;3.35;;;5.70;79.90;;;;;;5039991;28;20341;-73
2023/04/08 05:06:48;;;;;;;3.90;3.28;;;5.70;79.80;;;;;;5027304;28;20079;-71
2023/04/08 05:09:14;;;;;;;5.90;3.60;;;5.70;79.70;;;;;;5040555;28;20068;-66
2023/04/08 05:11:40;;;;;;;6.95;3.70;;;5.70;79.70;;;;;;5042030;28;20071;-71
2023/04/08 05:14:06;;;;;;;3.85;3.05;;;5.70;79.70;;;;;;5042251;28;20040;-65
2023/04/08 05:16:32;;;;;;;4.20;2.55;;;5.70;79.60;;;;;;5040719;28;20559;-66
2023/04/08 05:18:58;;;;;;;5.43;3.25;;;5.70;79.70;;;;;;5037122;28;20032;-72
2023/04/08 05:21:23;;;;;;;7.13;3.40;;;5.70;79.60;;;;;;5041619;28;20025;-72
2023/04/08 05:23:51;;;;;;;4.80;3.10;;;5.70;79.60;;;;;;5036821;28;20091;-66
2023/04/08 05:26:21;;;;;;;4.45;3.35;;;5.70;79.70;;;;;;5034468;28;20018;-65
2023/04/08 05:28:48;;;;;;;5.32;3.40;;;5.70;79.80;;;;;;5040755;28;20033;-65
2023/04/08 05:31:17;;;;;;;7.47;3.92;;;5.80;79.90;;;;;;5022890;28;20389;-65
2023/04/08 05:33:43;;;;;;;5.20;3.97;;;5.80;79.80;;;;;;5025324;28;20048;-65
2023/04/08 05:36:12;;;;;;;6.72;4.15;;;5.80;79.80;;;;;;5030875;28;20419;-65
2023/04/08 05:38:39;;;;;;;3.88;3.33;;;5.90;79.90;;;;;;5022493;28;20117;-65
2023/04/08 05:41:05;;;;;;;3.70;2.95;;;5.90;79.90;;;;;;5045411;28;20025;-65
2023/04/08 05:43:34;;;;;;;4.13;3.50;;;5.90;80.00;;;;;;5041136;28;20027;-66
2023/04/08 05:46:09;;;;;;;9.57;2.97;;;5.90;80.00;;;;;;5023675;28;20440;-65
2023/04/08 05:48:35;;;;;;;4.03;2.67;;;6.00;80.10;;;;;;5045290;28;20028;-72
2023/04/08 05:51:01;;;;;;;5.07;2.80;;;6.00;80.10;;;;;;5038648;28;20045;-71
2023/04/08 05:53:26;;;;;;;4.03;2.97;;;6.00;80.10;;;;;;5023803;28;20034;-71
2023/04/08 05:55:52;;;;;;;4.25;3.17;;;6.10;80.20;;;;;;5016911;28;20554;-70
2023/04/08 05:58:18;;;;;;;3.78;2.83;;;6.10;80.20;;;;;;5044517;28;20063;-65
2023/04/08 06:00:44;;;;;;;4.72;3.15;;;6.10;80.20;;;;;;5033866;28;20026;-71
2023/04/08 06:03:09;;;;;;;3.17;2.80;;;6.20;80.20;;;;;;5038577;28;20025;-71
2023/04/08 06:05:35;;;;;;;4.72;2.47;;;6.30;80.30;;;;;;5040838;28;20381;-71
2023/04/08 06:08:01;;;;;;;3.17;2.83;;;6.30;80.30;;;;;;5043952;28;20021;-66
2023/04/08 06:10:26;;;;;;;3.03;2.72;;;6.40;80.20;;;;;;5022097;28;20033;-71
2023/04/08 06:12:52;;;;;;;5.40;2.97;;;6.50;80.30;;;;;;5047594;28;20036;-65
2023/04/08 06:15:18;;;;;;;3.47;3.00;;;6.50;80.20;;;;;;5042970;28;20464;-65
2023/04/08 06:17:44;;;;;;;3.55;2.38;;;6.60;80.20;;;;;;5044588;28;20021;-66
2023/04/08 06:20:10;;;;;;;5.38;2.88;;;6.60;80.10;;;;;;5038933;28;20103;-66
2023/04/08 06:22:36;;;;;;;3.03;2.22;;;6.70;80.20;;;;;;5003833;28;20049;-65
2023/04/08 06:25:02;;;;;;;3.35;2.58;;;6.80;80.20;;;;;;5017965;28;20393;-71
2023/04/08 06:27:28;;;;;;;4.30;2.88;;;6.90;80.20;;;;;;5026024;28;20042;-71
2023/04/08 06:29:54;;;;;;;3.30;2.70;;;6.90;80.10;;;;;;5017467;28;20057;-70
2023/04/08 06:32:20;;;;;;;5.43;2.85;;;7.00;80.10;;;;;;5031419;28;20025;-67
2023/04/08 06:34:46;;;;;;;6.15;2.83;;;7.00;80.10;;;;;;5023912;28;20401;-66
2023/04/08 06:37:12;;;;;;;7.15;3.15;;;7.10;80.20;;;;;;5023333;28;20026;-71
2023/04/08 06:39:38;;;;;;;5.45;2.95;;;7.10;80.10;;;;;;5027039;28;20040;-65
2023/04/08 06:42:05;;;;;;;4.22;2.55;;;7.20;80.10;;;;;;5022947;28;20089;-65
2023/04/08 06:44:30;;;;;;;4.28;2.33;;;7.20;80.10;;;;;;5022766;28;20037;-71
2023/04/08 06:46:56;;;;;;;2.22;1.92;;;7.30;80.10;;;;;;5020382;28;20037;-70
2023/04/08 06:49:22;;;;;;;3.28;1.63;;;7.40;80.00;;;;;;5027711;28;20051;-66
2023/04/08 06:51:48;;;;;;;2.13;1.92;;;7.50;79.90;;;;;;5027047;28;20029;-70
2023/04/08 06:54:14;;;;;;;4.13;2.33;;;7.50;79.80;;;;;;5014548;28;20038;-71
2023/04/08 06:56:40;;;;;;;2.33;2.13;;;7.60;79.80;;;;;;5016510;28;20068;-71
2023/04/08 06:59:05;;;;;;;4.65;2.75;;;7.70;79.90;;;;;;5023533;28;20034;-70
2023/04/08 07:01:31;;;;;;;3.55;2.00;;;7.70;79.80;;;;;;5024607;28;20033;-70
2023/04/08 07:03:57;;;;;;;3.10;2.40;;;7.80;79.80;;;;;;5026459;28;20500;-66
2023/04/08 07:06:23;;;;;;;2.78;1.65;;;7.90;79.80;;;;;;5029632;28;20120;-67
2023/04/08 07:08:49;;;;;;;4.68;2.63;;;8.00;79.70;;;;;;5026435;28;20025;-66
2023/04/08 07:11:15;;;;;;;2.72;1.77;;;8.00;79.60;;;;;;5024241;28;20109;-65
2023/04/08 07:13:41;;;;;;;4.32;1.80;;;8.10;80.10;;;;;;5019229;28;20018;-72
2023/04/08 07:16:07;;;;;;;2.45;1.67;;;8.20;79.50;;;;;;5024821;28;20058;-65
2023/04/08 07:18:32;;;;;;;1.77;1.67;;;8.30;79.40;;;;;;5022266;28;20390;-66
2023/04/08 07:20:59;;;;;;;3.00;1.70;;;8.40;79.30;;;;;;5023457;28;20444;-70
2023/04/08 07:23:26;;;;;;;3.47;1.45;;;8.40;79.20;;;;;;5024114;28;20049;-65
2023/04/08 07:25:52;;;;;;;3.08;1.33;;;8.50;79.20;;;;;;5026738;28;20428;-65
2023/04/08 07:28:18;;;;;;;1.42;1.33;;;8.60;79.10;;;;;;5022602;28;20543;-70
2023/04/08 07:30:44;;;;;;;1.85;1.60;;;8.60;78.90;;;;;;5025142;28;20063;-70
2023/04/08 07:33:10;;;;;;;2.67;1.60;;;8.70;78.80;;;;;;5027068;28;20064;-65
2023/04/08 07:35:36;;;;;;;2.60;1.90;;;8.80;78.80;;;;;;5023360;28;20044;-66
2023/04/08 07:38:02;;;;;;;2.72;1.77;;;8.80;78.80;;;;;;5019239;28;20083;-67
2023/04/08 07:40:28;;;;;;;2.28;1.58;;;8.80;78.80;;;;;;5021682;28;20030;-65
2023/04/08 07:42:55;;;;;;;3.13;1.50;;;8.80;78.80;;;;;;5024460;28;20068;-65
2023/04/08 07:45:20;;;;;;;2.55;1.83;;;9.00;78.80;;;;;;5023496;28;20037;-65
2023/04/08 07:47:46;;;;;;;3.47;1.90;;;9.10;78.70;;;;;;5024338;28;20481;-67
2023/04/08 07:50:12;;;;;;;2.22;1.40;;;9.20;78.50;;;;;;5025280;28;20033;-68
2023/04/08 07:52:38;;;;;;;1.70;1.60;;;9.30;78.50;;;;;;5029491;28;20033;-65
2023/04/08 07:55:04;;;;;;;3.30;1.90;;;9.30;78.30;;;;;;5018962;28;20018;-67
2023/04/08 07:57:30;;;;;;;2.65;1.45;;;9.40;78.30;;;;;;5020021;28;20732;-67
2023/04/08 07:59:56;;;;;;;2.03;1.40;;;9.50;78.20;;;;;;5019977;28;20488;-67
2023/04/08 08:02:22;;;;;;;6.90;1.52;;;9.60;78.10;;;;;;5019797;28;20022;-64
2023/04/08 08:04:48;;;;;;;2.25;1.52;;;9.60;77.80;;;;;;5024834;28;20037;-71
2023/04/08 08:07:14;;;;;;;1.70;1.27;;;9.60;77.80;;;;;;5025256;28;20785;-71
2023/04/08 08:09:39;;;;;;;2.55;1.88;;;9.60;77.90;;;;;;5021618;28;20044;-68
2023/04/08 08:12:05;;;;;;;2.47;1.40;;;9.70;78.00;;;;;;5019053;28;20069;-67
2023/04/08 08:14:31;;;;;;;1.98;1.20;;;9.70;77.70;;;;;;5014033;28;20121;-65
2023/04/08 08:16:56;;;;;;;1.17;1.08;;;9.70;77.70;;;;;;5018197;28;20060;-67
2023/04/08 08:19:23;;;;;;;4.45;1.73;;;9.80;77.60;;;;;;5015434;28;20026;-66
2023/04/08 08:21:49;;;;;;;3.00;1.83;;;9.90;77.60;;;;;;5016867;28;20093;-66
2023/04/08 08:24:15;;;;;;;1.05;0.95;;;10.00;77.40;;;;;;5016046;28;20508;-69
2023/04/08 08:26:43;;;;;;;1.58;1.45;;;10.10;77.10;;;;;;5036953;28;20037;-66
2023/04/08 08:29:09;;;;;;;2.13;1.48;;;10.20;77.20;;;;;;5032840;28;20064;-66
2023/04/08 08:31:35;;;;;;;1.58;1.38;;;10.30;77.00;;;;;;5035671;28;20135;-67
2023/04/08 08:34:01;;;;;;;3.13;1.77;;;10.40;76.90;;;;;;5045749;28;20504;-67
2023/04/08 08:36:27;;;;;;;1.75;1.50;;;10.50;76.70;;;;;;5008180;28;20546;-65
2023/04/08 08:38:53;;;;;;;1.98;1.45;;;10.60;76.50;;;;;;5032396;28;20026;-68
2023/04/08 08:41:20;;;;;;;2.00;1.48;;;10.60;76.40;;;;;;5032937;28;20037;-72
2023/04/08 08:43:46;;;;;;;2.08;1.45;;;10.70;76.30;;;;;;5001798;28;20033;-72
2023/04/08 08:46:16;;;;;;;3.58;1.98;;;10.80;76.40;;;;;;5038623;28;20152;-72
2023/04/08 08:48:42;;;;;;;2.65;1.63;;;10.80;76.30;;;;;;5021435;28;20045;-67
2023/04/08 08:51:12;;;;;;;1.52;1.40;;;10.80;76.30;;;;;;5016156;28;20124;-73
2023/04/08 08:53:38;;;;;;;1.75;1.40;;;10.90;76.10;;;;;;5043350;28;20060;-68
2023/04/08 08:56:05;;;;;;;1.77;1.35;;;11.00;76.00;;;;;;5050025;28;20057;-73
2023/04/08 08:58:31;;;;;;;2.67;1.67;;;11.10;75.70;;;;;;5041335;28;20183;-74
2023/04/08 09:00:56;;;;;;;1.63;1.52;;;11.10;75.60;;;;;;5037048;28;20025;-66
2023/04/08 09:03:27;;;;;;;1.90;1.52;;;11.20;75.50;;;;;;5019204;28;20033;-73
2023/04/08 09:05:56;;;;;;;1.55;1.20;;;11.30;75.40;;;;;;5046535;28;20040;-67
2023/04/08 09:08:30;;;;;;;3.22;1.55;;;11.40;75.30;;;;;;5044097;28;20485;-67
2023/04/08 09:11:13;;;;;;;1.60;1.27;;;11.60;75.10;;;;;;5041508;28;20030;-73
2023/04/08 09:13:39;;;;;;;2.20;1.50;;;11.70;75.00;;;;;;5033143;28;20128;-73
2023/04/08 09:16:09;;;;;;;1.60;1.40;;;11.90;74.80;;;;;;5046715;28;20090;-67
2023/04/08 09:18:36;;;;;;;2.13;1.58;;;11.90;74.00;;;;;;5036397;28;20021;-67
2023/04/08 09:21:04;;;;;;;2.67;1.70;;;11.90;73.80;;;;;;5035838;28;20037;-66
2023/04/08 09:23:45;;;;;;;3.05;2.20;;;12.00;73.80;;;;;;5041118;28;20102;-67
2023/04/08 09:26:11;;;;;;;2.67;2.38;;;12.10;73.30;;;;;;5036884;28;20469;-67
2023/04/08 09:28:38;;;;;;;3.97;2.05;;;12.20;73.30;;;;;;5037128;28;20029;-73
2023/04/08 09:31:20;;;;;;;3.05;2.10;;;12.30;72.80;;;;;;5039835;28;20040;-72
2023/04/08 09:33:51;;;;;;;3.10;2.42;;;12.40;72.70;;;;;;5035070;28;20028;-72
2023/04/08 09:36:17;;;;;;;2.25;1.58;;;12.50;72.50;;;;;;5039665;28;20438;-73
2023/04/08 09:38:43;;;;;;;3.17;1.83;;;12.70;72.40;;;;;;5025822;28;20453;-66
2023/04/08 09:41:17;;;;;;;2.10;1.88;;;12.80;72.10;;;;;;5009815;28;20017;-67
2023/04/08 09:43:48;;;;;;;5.07;2.40;;;12.90;71.90;;;;;;5011632;28;20025;-66
2023/04/08 09:46:18;;;;;;;2.20;1.70;;;13.00;71.90;;;;;;5018782;28;20064;-67
2023/04/08 09:48:50;;;;;;;1.70;1.60;;;13.20;71.80;;;;;;5026340;28;20091;-66
2023/04/08 09:51:18;;;;;;;3.43;1.90;;;13.30;71.60;;;;;;5038692;28;20305;-66
2023/04/08 09:53:50;;;;;;;3.15;2.25;;;13.50;71.30;;;;;;5035441;28;20033;-71
2023/04/08 09:56:18;;;;;;;4.00;2.10;;;13.60;71.10;;;;;;5040623;28;20411;-72
2023/04/08 09:59:02;;;;;;;1.85;1.48;;;13.70;70.80;;;;;;5036963;28;20013;-67
2023/04/08 10:01:39;;;;;;;4.30;2.28;;;13.90;70.60;;;;;;5037666;28;20352;-72
2023/04/08 10:04:11;;;;;;;4.95;2.25;;;14.00;69.10;;;;;;5035468;28;20065;-67
2023/04/08 10:06:38;;;;;;;2.40;1.80;;;14.00;68.80;;;;;;5035489;28;20034;-66
2023/04/08 10:09:06;;;;;;;3.70;2.45;;;14.00;69.00;;;;;;5020098;28;20037;-66
2023/04/08 10:11:33;;;;;;;4.15;2.42;;;14.10;68.90;;;;;;5019587;28;20164;-67
2023/04/08 10:13:59;;;;;;;2.05;1.50;;;14.20;68.30;;;;;;5040315;28;20480;-71
2023/04/08 10:16:26;;;;;;;2.53;1.95;;;14.30;68.30;;;;;;5037351;28;20029;-67
2023/04/08 10:18:56;;;;;;;4.68;2.17;;;14.50;68.00;;;;;;5045263;28;20045;-71
2023/04/08 10:21:32;;;;;;;3.63;1.73;;;14.60;67.70;;;;;;5042038;28;20109;-72
2023/04/08 10:24:00;;;;;;;2.53;1.60;;;14.70;67.60;;;;;;5026954;28;20033;-66
2023/04/08 10:26:42;;;;;;;3.10;1.63;;;14.70;67.50;;;;;;5035713;28;20645;-66
2023/04/08 10:29:17;;;;;;;2.92;1.80;;;14.80;66.90;;;;;;5017751;28;20535;-72
2023/04/08 10:31:44;;;;;;;2.10;1.70;;;14.80;66.30;;;;;;5042859;28;20033;-72
2023/04/08 10:34:16;;;;;;;3.53;2.10;;;14.70;65.50;;;;;;5034412;28;20095;-72
2023/04/08 10:36:43;;;;;;;2.38;1.65;;;14.60;65.80;;;;;;5040970;28;20019;-72
2023/04/08 10:39:09;;;;;;;2.83;1.92;;;14.60;66.10;;;;;;5037329;28;20483;-73
2023/04/08 10:41:40;;;;;;;3.85;2.35;;;14.60;65.90;;;;;;5034398;28;20034;-74
2023/04/08 10:44:17;;;;;;;3.13;1.90;;;14.70;65.60;;;;;;5038973;28;20028;-66
2023/04/08 10:46:48;;;;;;;2.75;1.70;;;14.70;65.50;;;;;;5039690;28;20024;-67
2023/04/08 10:49:14;;;;;;;2.50;1.55;;;14.80;65.60;;;;;;5041135;28;20021;-66
2023/04/08 10:51:41;;;;;;;2.30;1.83;;;14.80;65.30;;;;;;5022236;28;20040;-67
2023/04/08 10:54:08;;;;;;;1.60;1.50;;;14.90;65.40;;;;;;5022536;28;20392;-67
2023/04/08 10:56:51;;;;;;;2.00;1.40;;;15.00;65.40;;;;;;5039912;28;20020;-72
2023/04/08 10:59:25;;;;;;;;;;;15.10;65.20;;;;;;5033986;28;20021;-73
2023/04/08 11:01:51;;;;;;;2.90;1.95;;;15.10;65.30;;;;;;5042996;28;20224;-73
2023/04/08 11:04:18;;;;;;;1.20;1.10;;;15.10;65.10;;;;;;5038483;28;20130;-66
2023/04/08 11:06:46;;;;;;;2.75;1.63;;;15.20;65.20;;;;;;5042654;28;20021;-71
2023/04/08 11:09:13;;;;;;;1.52;1.27;;;15.30;65.10;;;;;;5007154;28;20537;-73
2023/04/08 11:11:42;;;;;;;2.08;1.52;;;15.40;64.70;;;;;;5039994;28;20060;-66
2023/04/08 11:14:07;;;;;;;3.53;1.45;;;15.60;64.60;;;;;;5046083;28;20036;-66
2023/04/08 11:16:34;;;;;;;3.35;1.60;;;15.90;63.60;;;;;;5042166;28;20487;-67
2023/04/08 11:19:05;;;;;;;3.00;1.80;;;16.20;63.20;;;;;;5026948;28;20029;-73
2023/04/08 11:21:34;;;;;;;3.15;1.45;;;16.40;63.00;;;;;;5042377;28;20030;-67
2023/04/08 11:23:59;;;;;;;1.65;1.55;;;16.60;61.80;;;;;;5043373;28;20049;-74
2023/04/08 11:26:26;;;;;;;2.08;1.50;;;16.60;61.40;;;;;;5044942;28;20505;-72
2023/04/08 11:28:54;;;;;;;1.63;1.10;;;16.50;61.10;;;;;;5038241;28;20476;-73
2023/04/08 11:31:21;;;;;;;1.45;0.90;;;16.50;61.10;;;;;;5025703;28;20029;-73
2023/04/08 11:33:48;;;;;;;1.85;1.33;;;16.50;61.30;;;;;;5018575;28;20021;-66
2023/04/08 11:36:16;;;;;;;2.90;1.35;;;16.50;61.00;;;;;;5017797;28;20040;-67
2023/04/08 11:38:43;;;;;;;1.73;1.33;;;16.40;61.10;;;;;;5035619;28;20432;-68
2023/04/08 11:41:10;;;;;;;1.73;1.35;;;16.40;60.80;;;;;;5043489;28;20388;-67
2023/04/08 11:43:36;;;;;;;1.15;0.93;;;16.30;59.70;;;;;;5038806;28;20029;-66
2023/04/08 11:46:11;;;;;;;2.13;1.50;;;16.10;59.80;;;;;;5035052;28;20381;-74
2023/04/08 11:48:38;;;;;;;1.30;1.20;;;16.00;60.20;;;;;;5027423;28;20405;-66
2023/04/08 11:51:08;;;;;;;3.00;1.38;;;15.70;60.60;;;;;;5038294;28;20025;-66
2023/04/08 11:53:35;;;;;;;1.83;1.27;;;15.70;61.00;;;;;;5050293;28;20492;-67
2023/04/08 11:56:17;;;;;;;1.88;1.55;;;15.50;60.30;;;;;;5048953;28;20124;-67
2023/04/08 11:58:44;;;;;;;1.20;1.10;;;15.50;59.90;;;;;;5022674;28;20545;-72
2023/04/08 12:01:10;;;;;;;2.10;1.27;;;15.40;60.40;;;;;;5043080;28;20112;-73
2023/04/08 12:03:36;;;;;;;1.55;1.20;;;15.40;60.60;;;;;;5026711;28;20127;-73
2023/04/08 12:06:01;;;;;;;2.38;1.42;;;15.40;60.40;;;;;;5013759;28;20057;-72
2023/04/08 12:08:27;;;;;;;1.52;1.38;;;15.40;60.70;;;;;;5047971;28;20040;-73
2023/04/08 12:10:53;;;;;;;1.80;1.42;;;15.40;61.00;;;;;;5033297;28;20034;-67
2023/04/08 12:13:18;;;;;;;1.50;1.40;;;15.50;60.80;;;;;;5045070;28;20025;-74
2023/04/08 12:15:44;;;;;;;2.22;1.10;;;15.50;60.80;;;;;;5041233;28;20033;-73
2023/04/08 12:18:10;;;;;;;1.95;1.40;;;15.60;60.80;;;;;;5027234;28;20022;-73
2023/04/08 12:20:35;;;;;;;2.72;1.38;;;15.70;60.50;;;;;;5039355;28;20032;-72
2023/04/08 12:23:01;;;;;;;1.65;1.27;;;16.10;60.40;;;;;;5043648;28;20095;-67
2023/04/08 12:25:27;;;;;;;1.98;1.30;;;16.60;59.70;;;;;;5039551;28;20034;-66
2023/04/08 12:27:53;;;;;;;1.42;1.33;;;17.20;58.30;;;;;;5019590;28;20042;-73
2023/04/08 12:30:20;;;;;;;1.73;1.08;;;17.60;57.40;;;;;;5046701;28;20033;-73
2023/04/08 12:32:46;;;;;;;2.40;1.25;;;17.70;57.30;;;;;;5044889;28;20040;-66
2023/04/08 12:35:12;;;;;;;2.60;1.20;;;17.70;57.20;;;;;;5004269;28;20062;-67
2023/04/08 12:37:38;;;;;;;1.80;1.25;;;17.70;57.00;;;;;;5043402;28;20103;-68
2023/04/08 12:40:04;;;;;;;2.30;1.35;;;17.70;56.90;;;;;;5026731;28;20045;-66
2023/04/08 12:42:30;;;;;;;1.88;1.23;;;17.60;57.00;;;;;;5042409;28;20025;-68
2023/04/08 12:44:56;;;;;;;2.92;1.13;;;17.60;57.20;;;;;;5023747;28;20036;-67
2023/04/08 12:47:22;;;;;;;1.77;1.27;;;17.50;57.40;;;;;;5022398;28;20532;-73
2023/04/08 12:49:48;;;;;;;2.33;1.40;;;17.30;57.20;;;;;;5019250;28;20029;-74
2023/04/08 12:52:14;;;;;;;2.55;1.50;;;17.20;57.30;;;;;;5043855;28;20025;-66
2023/04/08 12:54:39;;;;;;;2.03;1.40;;;17.00;57.50;;;;;;5023327;28;20473;-74